sensor_id;sensor_type;location;lat;lon;timestamp;P1;durP1;ratioP1;P2;durP2;ratioP2
54121;SDS011;40029;58.708;50.190;2024-03-02T00:02:01;21.50;;;9.43;;
54121;SDS011;40029;58.708;50.190;2024-03-02T00:04:32;20.65;;;8.43;;
54121;SDS011;40029;58.708;50.190;2024-03-02T00:07:03;18.70;;;8.23;;
54121;SDS011;40029;58.708;50.190;2024-03-02T00:09:35;22.77;;;9.18;;
54121;SDS011;40029;58.708;50.190;2024-03-02T00:12:07;23.20;;;9.35;;
54121;SDS011;40029;58.708;50.190;2024-03-02T00:14:38;22.02;;;7.55;;
54121;SDS011;40029;58.708;50.190;2024-03-02T00:17:13;19.17;;;7.50;;
54121;SDS011;40029;58.708;50.190;2024-03-02T00:19:51;14.43;;;7.53;;
54121;SDS011;40029;58.708;50.190;2024-03-02T00:22:23;26.65;;;8.77;;
54121;SDS011;40029;58.708;50.190;2024-03-02T00:24:54;16.58;;;8.15;;
54121;SDS011;40029;58.708;50.190;2024-03-02T00:27:25;20.10;;;8.63;;
54121;SDS011;40029;58.708;50.190;2024-03-02T00:29:56;19.17;;;7.50;;
54121;SDS011;40029;58.708;50.190;2024-03-02T00:32:27;18.35;;;7.80;;
54121;SDS011;40029;58.708;50.190;2024-03-02T00:35:06;21.42;;;8.43;;
54121;SDS011;40029;58.708;50.190;2024-03-02T00:37:37;19.67;;;7.15;;
54121;SDS011;40029;58.708;50.190;2024-03-02T00:40:27;17.83;;;7.90;;
54121;SDS011;40029;58.708;50.190;2024-03-02T00:43:00;19.60;;;8.13;;
54121;SDS011;40029;58.708;50.190;2024-03-02T00:45:35;21.73;;;9.82;;
54121;SDS011;40029;58.708;50.190;2024-03-02T00:48:24;20.67;;;9.57;;
54121;SDS011;40029;58.708;50.190;2024-03-02T00:50:55;19.92;;;8.55;;
54121;SDS011;40029;58.708;50.190;2024-03-02T00:53:26;16.75;;;8.70;;
54121;SDS011;40029;58.708;50.190;2024-03-02T00:55:58;22.38;;;9.38;;
54121;SDS011;40029;58.708;50.190;2024-03-02T00:58:51;17.48;;;8.30;;
54121;SDS011;40029;58.708;50.190;2024-03-02T01:01:23;27.73;;;9.23;;
54121;SDS011;40029;58.708;50.190;2024-03-02T01:03:54;25.83;;;10.23;;
54121;SDS011;40029;58.708;50.190;2024-03-02T01:06:25;23.58;;;9.95;;
54121;SDS011;40029;58.708;50.190;2024-03-02T01:09:15;18.70;;;8.23;;
54121;SDS011;40029;58.708;50.190;2024-03-02T01:11:48;24.88;;;10.27;;
54121;SDS011;40029;58.708;50.190;2024-03-02T01:14:19;27.88;;;10.55;;
54121;SDS011;40029;58.708;50.190;2024-03-02T01:16:50;26.63;;;10.13;;
54121;SDS011;40029;58.708;50.190;2024-03-02T01:19:21;14.90;;;7.95;;
54121;SDS011;40029;58.708;50.190;2024-03-02T01:21:53;29.67;;;12.07;;
54121;SDS011;40029;58.708;50.190;2024-03-02T01:24:24;23.30;;;10.52;;
54121;SDS011;40029;58.708;50.190;2024-03-02T01:26:55;22.85;;;10.02;;
54121;SDS011;40029;58.708;50.190;2024-03-02T01:29:45;19.98;;;8.82;;
54121;SDS011;40029;58.708;50.190;2024-03-02T01:32:16;21.90;;;8.40;;
54121;SDS011;40029;58.708;50.190;2024-03-02T01:34:47;16.92;;;8.20;;
54121;SDS011;40029;58.708;50.190;2024-03-02T01:37:19;19.83;;;8.15;;
54121;SDS011;40029;58.708;50.190;2024-03-02T01:39:50;18.13;;;8.02;;
54121;SDS011;40029;58.708;50.190;2024-03-02T01:42:21;15.65;;;8.13;;
54121;SDS011;40029;58.708;50.190;2024-03-02T01:44:52;19.00;;;7.60;;
54121;SDS011;40029;58.708;50.190;2024-03-02T01:47:24;17.30;;;8.20;;
54121;SDS011;40029;58.708;50.190;2024-03-02T01:49:55;22.92;;;9.75;;
54121;SDS011;40029;58.708;50.190;2024-03-02T01:52:26;19.77;;;8.45;;
54121;SDS011;40029;58.708;50.190;2024-03-02T01:54:58;20.48;;;8.10;;
54121;SDS011;40029;58.708;50.190;2024-03-02T01:57:29;15.77;;;7.72;;
54121;SDS011;40029;58.708;50.190;2024-03-02T02:00:01;23.65;;;8.98;;
54121;SDS011;40029;58.708;50.190;2024-03-02T02:02:52;20.40;;;8.32;;
54121;SDS011;40029;58.708;50.190;2024-03-02T02:05:24;18.58;;;7.90;;
54121;SDS011;40029;58.708;50.190;2024-03-02T02:08:14;41.20;;;16.83;;
54121;SDS011;40029;58.708;50.190;2024-03-02T02:10:46;44.13;;;15.68;;
54121;SDS011;40029;58.708;50.190;2024-03-02T02:13:35;38.17;;;15.43;;
54121;SDS011;40029;58.708;50.190;2024-03-02T02:16:07;45.38;;;16.92;;
54121;SDS011;40029;58.708;50.190;2024-03-02T02:18:39;29.73;;;12.77;;
54121;SDS011;40029;58.708;50.190;2024-03-02T02:21:10;30.23;;;12.95;;
54121;SDS011;40029;58.708;50.190;2024-03-02T02:23:41;25.92;;;10.65;;
54121;SDS011;40029;58.708;50.190;2024-03-02T02:26:17;21.17;;;10.35;;
54121;SDS011;40029;58.708;50.190;2024-03-02T02:28:48;21.92;;;10.00;;
54121;SDS011;40029;58.708;50.190;2024-03-02T02:31:19;22.77;;;9.55;;
54121;SDS011;40029;58.708;50.190;2024-03-02T02:34:09;23.58;;;9.40;;
54121;SDS011;40029;58.708;50.190;2024-03-02T02:36:40;24.67;;;11.27;;
54121;SDS011;40029;58.708;50.190;2024-03-02T02:39:13;25.98;;;11.32;;
54121;SDS011;40029;58.708;50.190;2024-03-02T02:41:47;28.70;;;11.73;;
54121;SDS011;40029;58.708;50.190;2024-03-02T02:44:19;22.60;;;11.18;;
54121;SDS011;40029;58.708;50.190;2024-03-02T02:46:50;24.90;;;10.43;;
54121;SDS011;40029;58.708;50.190;2024-03-02T02:49:21;23.77;;;10.38;;
54121;SDS011;40029;58.708;50.190;2024-03-02T02:52:11;24.23;;;10.45;;
54121;SDS011;40029;58.708;50.190;2024-03-02T02:54:42;24.92;;;10.50;;
54121;SDS011;40029;58.708;50.190;2024-03-02T02:57:13;19.25;;;10.32;;
54121;SDS011;40029;58.708;50.190;2024-03-02T02:59:44;19.90;;;8.45;;
54121;SDS011;40029;58.708;50.190;2024-03-02T03:02:15;24.70;;;9.50;;
54121;SDS011;40029;58.708;50.190;2024-03-02T03:04:47;18.48;;;9.20;;
54121;SDS011;40029;58.708;50.190;2024-03-02T03:07:37;17.85;;;8.50;;
54121;SDS011;40029;58.708;50.190;2024-03-02T03:10:28;20.58;;;10.05;;
54121;SDS011;40029;58.708;50.190;2024-03-02T03:12:59;38.42;;;13.60;;
54121;SDS011;40029;58.708;50.190;2024-03-02T03:15:31;25.17;;;11.55;;
54121;SDS011;40029;58.708;50.190;2024-03-02T03:18:20;23.75;;;10.10;;
54121;SDS011;40029;58.708;50.190;2024-03-02T03:21:10;20.67;;;9.52;;
54121;SDS011;40029;58.708;50.190;2024-03-02T03:23:41;25.60;;;10.23;;
54121;SDS011;40029;58.708;50.190;2024-03-02T03:26:12;18.45;;;9.07;;
54121;SDS011;40029;58.708;50.190;2024-03-02T03:28:43;16.70;;;9.02;;
54121;SDS011;40029;58.708;50.190;2024-03-02T03:31:15;18.08;;;7.50;;
54121;SDS011;40029;58.708;50.190;2024-03-02T03:33:46;19.02;;;8.40;;
54121;SDS011;40029;58.708;50.190;2024-03-02T03:36:17;19.30;;;8.00;;
54121;SDS011;40029;58.708;50.190;2024-03-02T03:38:48;30.05;;;10.57;;
54121;SDS011;40029;58.708;50.190;2024-03-02T03:41:40;25.00;;;10.07;;
54121;SDS011;40029;58.708;50.190;2024-03-02T03:44:11;28.42;;;10.48;;
54121;SDS011;40029;58.708;50.190;2024-03-02T03:46:42;34.30;;;10.80;;
54121;SDS011;40029;58.708;50.190;2024-03-02T03:49:14;26.65;;;10.48;;
54121;SDS011;40029;58.708;50.190;2024-03-02T03:52:04;30.83;;;10.63;;
54121;SDS011;40029;58.708;50.190;2024-03-02T03:54:35;26.73;;;10.85;;
54121;SDS011;40029;58.708;50.190;2024-03-02T03:57:07;30.30;;;11.90;;
54121;SDS011;40029;58.708;50.190;2024-03-02T03:59:39;20.48;;;9.82;;
54121;SDS011;40029;58.708;50.190;2024-03-02T04:02:10;21.23;;;9.20;;
54121;SDS011;40029;58.708;50.190;2024-03-02T04:04:43;23.58;;;9.32;;
54121;SDS011;40029;58.708;50.190;2024-03-02T04:07:14;21.38;;;8.90;;
54121;SDS011;40029;58.708;50.190;2024-03-02T04:09:46;21.80;;;9.88;;
54121;SDS011;40029;58.708;50.190;2024-03-02T04:12:17;30.98;;;11.50;;
54121;SDS011;40029;58.708;50.190;2024-03-02T04:14:48;35.72;;;11.68;;
54121;SDS011;40029;58.708;50.190;2024-03-02T04:17:19;31.05;;;12.05;;
54121;SDS011;40029;58.708;50.190;2024-03-02T04:20:09;26.10;;;11.23;;
54121;SDS011;40029;58.708;50.190;2024-03-02T04:22:43;27.48;;;11.50;;
54121;SDS011;40029;58.708;50.190;2024-03-02T04:25:14;23.58;;;9.43;;
54121;SDS011;40029;58.708;50.190;2024-03-02T04:27:45;20.90;;;9.30;;
54121;SDS011;40029;58.708;50.190;2024-03-02T04:30:35;23.95;;;9.30;;
54121;SDS011;40029;58.708;50.190;2024-03-02T04:33:06;22.85;;;8.88;;
54121;SDS011;40029;58.708;50.190;2024-03-02T04:35:40;22.90;;;10.10;;
54121;SDS011;40029;58.708;50.190;2024-03-02T04:38:12;23.50;;;9.55;;
54121;SDS011;40029;58.708;50.190;2024-03-02T04:40:43;23.20;;;9.68;;
54121;SDS011;40029;58.708;50.190;2024-03-02T04:43:14;24.10;;;10.05;;
54121;SDS011;40029;58.708;50.190;2024-03-02T04:45:47;25.65;;;11.35;;
54121;SDS011;40029;58.708;50.190;2024-03-02T04:48:18;27.35;;;10.93;;
54121;SDS011;40029;58.708;50.190;2024-03-02T04:50:50;28.95;;;10.93;;
54121;SDS011;40029;58.708;50.190;2024-03-02T04:53:21;39.80;;;14.13;;
54121;SDS011;40029;58.708;50.190;2024-03-02T04:55:53;54.95;;;17.70;;
54121;SDS011;40029;58.708;50.190;2024-03-02T04:58:42;86.85;;;26.83;;
54121;SDS011;40029;58.708;50.190;2024-03-02T05:01:13;113.03;;;29.55;;
54121;SDS011;40029;58.708;50.190;2024-03-02T05:03:48;89.68;;;25.92;;
54121;SDS011;40029;58.708;50.190;2024-03-02T05:06:19;61.03;;;20.92;;
54121;SDS011;40029;58.708;50.190;2024-03-02T05:08:50;66.45;;;22.13;;
54121;SDS011;40029;58.708;50.190;2024-03-02T05:11:22;86.00;;;26.13;;
54121;SDS011;40029;58.708;50.190;2024-03-02T05:14:08;79.32;;;26.98;;
54121;SDS011;40029;58.708;50.190;2024-03-02T05:16:39;83.05;;;26.10;;
54121;SDS011;40029;58.708;50.190;2024-03-02T05:19:12;69.75;;;23.83;;
54121;SDS011;40029;58.708;50.190;2024-03-02T05:21:43;62.05;;;22.25;;
54121;SDS011;40029;58.708;50.190;2024-03-02T05:24:33;67.20;;;22.88;;
54121;SDS011;40029;58.708;50.190;2024-03-02T05:27:04;65.85;;;21.45;;
54121;SDS011;40029;58.708;50.190;2024-03-02T05:29:37;71.50;;;22.20;;
54121;SDS011;40029;58.708;50.190;2024-03-02T05:32:08;67.40;;;24.38;;
54121;SDS011;40029;58.708;50.190;2024-03-02T05:34:39;82.03;;;25.80;;
54121;SDS011;40029;58.708;50.190;2024-03-02T05:37:10;84.72;;;27.83;;
54121;SDS011;40029;58.708;50.190;2024-03-02T05:40:00;87.80;;;26.73;;
54121;SDS011;40029;58.708;50.190;2024-03-02T05:42:31;68.15;;;23.40;;
54121;SDS011;40029;58.708;50.190;2024-03-02T05:45:02;68.95;;;24.05;;
54121;SDS011;40029;58.708;50.190;2024-03-02T05:47:34;53.80;;;20.27;;
54121;SDS011;40029;58.708;50.190;2024-03-02T05:50:05;56.75;;;20.45;;
54121;SDS011;40029;58.708;50.190;2024-03-02T05:52:37;54.33;;;20.42;;
54121;SDS011;40029;58.708;50.190;2024-03-02T05:55:28;64.10;;;19.38;;
54121;SDS011;40029;58.708;50.190;2024-03-02T05:57:59;59.50;;;17.05;;
54121;SDS011;40029;58.708;50.190;2024-03-02T06:00:50;48.85;;;17.23;;
54121;SDS011;40029;58.708;50.190;2024-03-02T06:03:21;64.10;;;19.15;;
54121;SDS011;40029;58.708;50.190;2024-03-02T06:05:52;62.42;;;20.23;;
54121;SDS011;40029;58.708;50.190;2024-03-02T06:08:24;66.38;;;19.38;;
54121;SDS011;40029;58.708;50.190;2024-03-02T06:10:55;64.88;;;20.35;;
54121;SDS011;40029;58.708;50.190;2024-03-02T06:13:27;52.60;;;17.42;;
54121;SDS011;40029;58.708;50.190;2024-03-02T06:15:58;64.18;;;20.13;;
54121;SDS011;40029;58.708;50.190;2024-03-02T06:18:47;77.97;;;22.85;;
54121;SDS011;40029;58.708;50.190;2024-03-02T06:21:18;68.68;;;20.15;;
54121;SDS011;40029;58.708;50.190;2024-03-02T06:23:50;70.53;;;20.23;;
54121;SDS011;40029;58.708;50.190;2024-03-02T06:26:22;62.58;;;18.20;;
54121;SDS011;40029;58.708;50.190;2024-03-02T06:28:53;57.15;;;17.88;;
54121;SDS011;40029;58.708;50.190;2024-03-02T06:31:43;63.95;;;17.52;;
54121;SDS011;40029;58.708;50.190;2024-03-02T06:34:14;50.95;;;16.23;;
54121;SDS011;40029;58.708;50.190;2024-03-02T06:36:45;43.15;;;15.60;;
54121;SDS011;40029;58.708;50.190;2024-03-02T06:39:35;48.35;;;14.00;;
54121;SDS011;40029;58.708;50.190;2024-03-02T06:42:06;40.00;;;14.25;;
54121;SDS011;40029;58.708;50.190;2024-03-02T06:44:37;37.13;;;14.43;;
54121;SDS011;40029;58.708;50.190;2024-03-02T06:47:09;44.88;;;16.45;;
54121;SDS011;40029;58.708;50.190;2024-03-02T06:49:40;48.17;;;16.40;;
54121;SDS011;40029;58.708;50.190;2024-03-02T06:52:11;52.55;;;18.15;;
54121;SDS011;40029;58.708;50.190;2024-03-02T06:54:42;62.28;;;19.35;;
54121;SDS011;40029;58.708;50.190;2024-03-02T06:57:13;63.83;;;18.17;;
54121;SDS011;40029;58.708;50.190;2024-03-02T06:59:44;47.03;;;16.08;;
54121;SDS011;40029;58.708;50.190;2024-03-02T07:02:15;50.15;;;16.05;;
54121;SDS011;40029;58.708;50.190;2024-03-02T07:04:46;45.08;;;15.38;;
54121;SDS011;40029;58.708;50.190;2024-03-02T07:07:17;56.08;;;16.75;;
54121;SDS011;40029;58.708;50.190;2024-03-02T07:09:49;57.72;;;15.90;;
54121;SDS011;40029;58.708;50.190;2024-03-02T07:12:20;53.45;;;17.48;;
54121;SDS011;40029;58.708;50.190;2024-03-02T07:14:51;55.10;;;16.42;;
54121;SDS011;40029;58.708;50.190;2024-03-02T07:17:37;54.17;;;17.20;;
54121;SDS011;40029;58.708;50.190;2024-03-02T07:20:08;62.65;;;18.58;;
54121;SDS011;40029;58.708;50.190;2024-03-02T07:22:39;65.57;;;20.95;;
54121;SDS011;40029;58.708;50.190;2024-03-02T07:25:29;64.40;;;18.90;;
54121;SDS011;40029;58.708;50.190;2024-03-02T07:28:00;56.00;;;17.08;;
54121;SDS011;40029;58.708;50.190;2024-03-02T07:30:31;56.75;;;16.35;;
54121;SDS011;40029;58.708;50.190;2024-03-02T07:33:03;66.85;;;17.55;;
54121;SDS011;40029;58.708;50.190;2024-03-02T07:35:54;65.28;;;20.88;;
54121;SDS011;40029;58.708;50.190;2024-03-02T07:38:26;66.78;;;19.35;;
54121;SDS011;40029;58.708;50.190;2024-03-02T07:40:58;61.53;;;18.50;;
54121;SDS011;40029;58.708;50.190;2024-03-02T07:43:29;47.17;;;15.60;;
54121;SDS011;40029;58.708;50.190;2024-03-02T07:46:03;61.80;;;17.07;;
54121;SDS011;40029;58.708;50.190;2024-03-02T07:48:34;45.67;;;15.43;;
54121;SDS011;40029;58.708;50.190;2024-03-02T07:51:05;59.78;;;19.08;;
54121;SDS011;40029;58.708;50.190;2024-03-02T07:53:37;61.70;;;19.50;;
54121;SDS011;40029;58.708;50.190;2024-03-02T07:56:08;68.57;;;20.85;;
54121;SDS011;40029;58.708;50.190;2024-03-02T07:58:39;70.97;;;22.30;;
54121;SDS011;40029;58.708;50.190;2024-03-02T08:01:12;56.33;;;18.60;;
54121;SDS011;40029;58.708;50.190;2024-03-02T08:03:43;68.20;;;21.27;;
54121;SDS011;40029;58.708;50.190;2024-03-02T08:06:20;71.75;;;21.50;;
54121;SDS011;40029;58.708;50.190;2024-03-02T08:09:11;63.35;;;20.70;;
54121;SDS011;40029;58.708;50.190;2024-03-02T08:11:42;71.95;;;22.70;;
54121;SDS011;40029;58.708;50.190;2024-03-02T08:14:13;64.65;;;19.48;;
54121;SDS011;40029;58.708;50.190;2024-03-02T08:16:44;67.25;;;18.50;;
54121;SDS011;40029;58.708;50.190;2024-03-02T08:19:16;53.85;;;18.52;;
54121;SDS011;40029;58.708;50.190;2024-03-02T08:22:06;55.30;;;16.52;;
54121;SDS011;40029;58.708;50.190;2024-03-02T08:24:37;52.47;;;17.13;;
54121;SDS011;40029;58.708;50.190;2024-03-02T08:27:08;49.55;;;17.38;;
54121;SDS011;40029;58.708;50.190;2024-03-02T08:29:58;54.17;;;15.70;;
54121;SDS011;40029;58.708;50.190;2024-03-02T08:32:47;52.55;;;15.75;;
54121;SDS011;40029;58.708;50.190;2024-03-02T08:35:18;53.75;;;17.50;;
54121;SDS011;40029;58.708;50.190;2024-03-02T08:37:50;59.05;;;18.55;;
54121;SDS011;40029;58.708;50.190;2024-03-02T08:40:21;59.45;;;18.05;;
54121;SDS011;40029;58.708;50.190;2024-03-02T08:43:11;57.83;;;19.13;;
54121;SDS011;40029;58.708;50.190;2024-03-02T08:45:42;54.45;;;19.40;;
54121;SDS011;40029;58.708;50.190;2024-03-02T08:48:13;67.13;;;19.40;;
54121;SDS011;40029;58.708;50.190;2024-03-02T08:50:44;58.65;;;19.42;;
54121;SDS011;40029;58.708;50.190;2024-03-02T08:53:15;66.70;;;20.42;;
54121;SDS011;40029;58.708;50.190;2024-03-02T08:55:50;61.78;;;19.35;;
54121;SDS011;40029;58.708;50.190;2024-03-02T08:58:21;62.33;;;20.50;;
54121;SDS011;40029;58.708;50.190;2024-03-02T09:00:52;62.67;;;21.10;;
54121;SDS011;40029;58.708;50.190;2024-03-02T09:03:23;63.65;;;21.85;;
54121;SDS011;40029;58.708;50.190;2024-03-02T09:05:54;53.70;;;20.35;;
54121;SDS011;40029;58.708;50.190;2024-03-02T09:08:25;61.25;;;19.90;;
54121;SDS011;40029;58.708;50.190;2024-03-02T09:10:57;57.85;;;19.90;;
54121;SDS011;40029;58.708;50.190;2024-03-02T09:13:28;52.70;;;17.95;;
54121;SDS011;40029;58.708;50.190;2024-03-02T09:16:00;65.93;;;21.63;;
54121;SDS011;40029;58.708;50.190;2024-03-02T09:18:31;52.42;;;17.55;;
54121;SDS011;40029;58.708;50.190;2024-03-02T09:21:02;51.92;;;17.67;;
54121;SDS011;40029;58.708;50.190;2024-03-02T09:23:35;46.78;;;16.50;;
54121;SDS011;40029;58.708;50.190;2024-03-02T09:26:06;53.10;;;17.58;;
54121;SDS011;40029;58.708;50.190;2024-03-02T09:28:38;50.83;;;16.40;;
54121;SDS011;40029;58.708;50.190;2024-03-02T09:31:09;55.60;;;17.15;;
54121;SDS011;40029;58.708;50.190;2024-03-02T09:33:40;55.00;;;18.20;;
54121;SDS011;40029;58.708;50.190;2024-03-02T09:36:18;50.10;;;17.30;;
54121;SDS011;40029;58.708;50.190;2024-03-02T09:39:10;50.20;;;18.48;;
54121;SDS011;40029;58.708;50.190;2024-03-02T09:41:42;56.75;;;17.85;;
54121;SDS011;40029;58.708;50.190;2024-03-02T09:44:14;50.05;;;19.90;;
54121;SDS011;40029;58.708;50.190;2024-03-02T09:46:49;51.70;;;19.17;;
54121;SDS011;40029;58.708;50.190;2024-03-02T09:49:23;48.30;;;18.52;;
54121;SDS011;40029;58.708;50.190;2024-03-02T09:51:54;55.47;;;19.15;;
54121;SDS011;40029;58.708;50.190;2024-03-02T09:54:28;52.70;;;17.87;;
54121;SDS011;40029;58.708;50.190;2024-03-02T09:56:59;47.88;;;18.88;;
54121;SDS011;40029;58.708;50.190;2024-03-02T09:59:32;44.65;;;16.70;;
54121;SDS011;40029;58.708;50.190;2024-03-02T10:02:03;47.92;;;17.73;;
54121;SDS011;40029;58.708;50.190;2024-03-02T10:04:37;54.17;;;16.67;;
54121;SDS011;40029;58.708;50.190;2024-03-02T10:07:27;46.42;;;16.75;;
54121;SDS011;40029;58.708;50.190;2024-03-02T10:09:58;52.35;;;20.20;;
54121;SDS011;40029;58.708;50.190;2024-03-02T10:12:44;47.88;;;16.88;;
54121;SDS011;40029;58.708;50.190;2024-03-02T10:15:23;48.42;;;17.77;;
54121;SDS011;40029;58.708;50.190;2024-03-02T10:17:55;49.22;;;16.38;;
54121;SDS011;40029;58.708;50.190;2024-03-02T10:20:29;43.73;;;16.70;;
54121;SDS011;40029;58.708;50.190;2024-03-02T10:23:10;55.47;;;18.42;;
54121;SDS011;40029;58.708;50.190;2024-03-02T10:25:42;48.00;;;17.27;;
54121;SDS011;40029;58.708;50.190;2024-03-02T10:28:14;53.17;;;18.90;;
54121;SDS011;40029;58.708;50.190;2024-03-02T10:30:47;50.58;;;17.73;;
54121;SDS011;40029;58.708;50.190;2024-03-02T10:33:20;51.47;;;17.55;;
54121;SDS011;40029;58.708;50.190;2024-03-02T10:35:51;49.65;;;18.85;;
54121;SDS011;40029;58.708;50.190;2024-03-02T10:38:23;52.95;;;19.00;;
54121;SDS011;40029;58.708;50.190;2024-03-02T10:40:54;53.80;;;18.08;;
54121;SDS011;40029;58.708;50.190;2024-03-02T10:43:27;48.42;;;17.23;;
54121;SDS011;40029;58.708;50.190;2024-03-02T10:45:59;54.92;;;19.20;;
54121;SDS011;40029;58.708;50.190;2024-03-02T10:48:31;53.25;;;18.75;;
54121;SDS011;40029;58.708;50.190;2024-03-02T10:51:03;51.40;;;19.10;;
54121;SDS011;40029;58.708;50.190;2024-03-02T10:53:54;56.78;;;19.08;;
54121;SDS011;40029;58.708;50.190;2024-03-02T10:56:38;54.53;;;19.50;;
54121;SDS011;40029;58.708;50.190;2024-03-02T11:02:06;77.25;;;26.63;;
54121;SDS011;40029;58.708;50.190;2024-03-02T11:04:39;67.70;;;21.90;;
54121;SDS011;40029;58.708;50.190;2024-03-02T11:07:12;102.32;;;30.75;;
54121;SDS011;40029;58.708;50.190;2024-03-02T11:10:02;85.53;;;28.08;;
54121;SDS011;40029;58.708;50.190;2024-03-02T11:12:42;80.25;;;26.33;;
54121;SDS011;40029;58.708;50.190;2024-03-02T11:15:24;98.38;;;33.10;;
54121;SDS011;40029;58.708;50.190;2024-03-02T11:17:57;68.38;;;23.85;;
54121;SDS011;40029;58.708;50.190;2024-03-02T11:20:28;77.65;;;26.23;;
54121;SDS011;40029;58.708;50.190;2024-03-02T11:23:04;104.43;;;34.00;;
54121;SDS011;40029;58.708;50.190;2024-03-02T11:25:37;71.47;;;23.40;;
54121;SDS011;40029;58.708;50.190;2024-03-02T11:28:10;74.40;;;25.63;;
54121;SDS011;40029;58.708;50.190;2024-03-02T11:33:13;85.10;;;27.83;;
54121;SDS011;40029;58.708;50.190;2024-03-02T11:35:45;80.20;;;28.33;;
54121;SDS011;40029;58.708;50.190;2024-03-02T11:38:18;108.10;;;33.55;;
54121;SDS011;40029;58.708;50.190;2024-03-02T11:40:49;102.05;;;33.72;;
54121;SDS011;40029;58.708;50.190;2024-03-02T11:43:21;147.27;;;38.97;;
54121;SDS011;40029;58.708;50.190;2024-03-02T11:45:57;139.10;;;41.05;;
54121;SDS011;40029;58.708;50.190;2024-03-02T11:48:30;109.03;;;33.60;;
54121;SDS011;40029;58.708;50.190;2024-03-02T11:51:01;114.55;;;33.47;;
54121;SDS011;40029;58.708;50.190;2024-03-02T11:53:33;124.32;;;36.10;;
54121;SDS011;40029;58.708;50.190;2024-03-02T11:56:06;111.05;;;33.40;;
54121;SDS011;40029;58.708;50.190;2024-03-02T11:58:40;111.07;;;33.25;;
54121;SDS011;40029;58.708;50.190;2024-03-02T12:01:12;103.22;;;33.55;;
54121;SDS011;40029;58.708;50.190;2024-03-02T12:03:44;84.38;;;26.58;;
54121;SDS011;40029;58.708;50.190;2024-03-02T12:06:16;102.72;;;32.70;;
54121;SDS011;40029;58.708;50.190;2024-03-02T12:08:51;95.25;;;31.52;;
54121;SDS011;40029;58.708;50.190;2024-03-02T12:11:24;111.90;;;36.15;;
54121;SDS011;40029;58.708;50.190;2024-03-02T12:13:55;119.95;;;37.33;;
54121;SDS011;40029;58.708;50.190;2024-03-02T12:16:46;91.22;;;30.40;;
54121;SDS011;40029;58.708;50.190;2024-03-02T12:19:20;123.85;;;37.05;;
54121;SDS011;40029;58.708;50.190;2024-03-02T12:21:52;97.55;;;29.83;;
54121;SDS011;40029;58.708;50.190;2024-03-02T12:24:28;113.38;;;34.38;;
54121;SDS011;40029;58.708;50.190;2024-03-02T12:27:00;131.93;;;41.58;;
54121;SDS011;40029;58.708;50.190;2024-03-02T12:29:31;93.32;;;31.27;;
54121;SDS011;40029;58.708;50.190;2024-03-02T12:32:04;100.13;;;35.00;;
54121;SDS011;40029;58.708;50.190;2024-03-02T12:34:37;99.95;;;35.28;;
54121;SDS011;40029;58.708;50.190;2024-03-02T12:37:11;92.72;;;32.75;;
54121;SDS011;40029;58.708;50.190;2024-03-02T12:39:47;108.00;;;35.08;;
54121;SDS011;40029;58.708;50.190;2024-03-02T12:42:18;99.85;;;32.17;;
54121;SDS011;40029;58.708;50.190;2024-03-02T12:44:49;99.82;;;33.20;;
54121;SDS011;40029;58.708;50.190;2024-03-02T12:47:24;100.72;;;32.45;;
54121;SDS011;40029;58.708;50.190;2024-03-02T12:49:56;72.50;;;27.35;;
54121;SDS011;40029;58.708;50.190;2024-03-02T12:52:28;70.38;;;25.63;;
54121;SDS011;40029;58.708;50.190;2024-03-02T12:55:00;80.07;;;27.48;;
54121;SDS011;40029;58.708;50.190;2024-03-02T12:57:34;66.65;;;25.90;;
54121;SDS011;40029;58.708;50.190;2024-03-02T13:00:24;68.97;;;26.25;;
54121;SDS011;40029;58.708;50.190;2024-03-02T13:02:56;77.28;;;28.73;;
54121;SDS011;40029;58.708;50.190;2024-03-02T13:05:32;95.60;;;31.38;;
54121;SDS011;40029;58.708;50.190;2024-03-02T13:08:03;141.90;;;43.42;;
54121;SDS011;40029;58.708;50.190;2024-03-02T13:10:37;112.30;;;35.17;;
54121;SDS011;40029;58.708;50.190;2024-03-02T13:13:08;166.63;;;51.13;;
54121;SDS011;40029;58.708;50.190;2024-03-02T13:15:40;107.20;;;38.70;;
54121;SDS011;40029;58.708;50.190;2024-03-02T13:18:11;133.85;;;41.95;;
54121;SDS011;40029;58.708;50.190;2024-03-02T13:20:42;272.25;;;71.93;;
54121;SDS011;40029;58.708;50.190;2024-03-02T13:23:32;228.70;;;66.18;;
54121;SDS011;40029;58.708;50.190;2024-03-02T13:26:03;256.88;;;70.95;;
54121;SDS011;40029;58.708;50.190;2024-03-02T13:28:35;168.52;;;51.72;;
54121;SDS011;40029;58.708;50.190;2024-03-02T13:31:25;109.88;;;38.70;;
54121;SDS011;40029;58.708;50.190;2024-03-02T13:33:56;104.47;;;37.20;;
54121;SDS011;40029;58.708;50.190;2024-03-02T13:36:27;98.47;;;37.08;;
54121;SDS011;40029;58.708;50.190;2024-03-02T13:38:59;104.55;;;33.70;;
54121;SDS011;40029;58.708;50.190;2024-03-02T13:41:30;83.57;;;30.85;;
54121;SDS011;40029;58.708;50.190;2024-03-02T13:44:01;78.80;;;28.88;;
54121;SDS011;40029;58.708;50.190;2024-03-02T13:46:32;100.65;;;35.58;;
54121;SDS011;40029;58.708;50.190;2024-03-02T13:49:03;109.10;;;36.15;;
54121;SDS011;40029;58.708;50.190;2024-03-02T13:51:35;109.60;;;38.28;;
54121;SDS011;40029;58.708;50.190;2024-03-02T13:54:06;116.75;;;40.60;;
54121;SDS011;40029;58.708;50.190;2024-03-02T13:56:37;93.10;;;33.47;;
54121;SDS011;40029;58.708;50.190;2024-03-02T13:59:28;97.28;;;33.42;;
54121;SDS011;40029;58.708;50.190;2024-03-02T14:01:59;85.95;;;32.13;;
54121;SDS011;40029;58.708;50.190;2024-03-02T14:04:31;84.32;;;32.28;;
54121;SDS011;40029;58.708;50.190;2024-03-02T14:07:04;83.30;;;30.23;;
54121;SDS011;40029;58.708;50.190;2024-03-02T14:12:10;83.00;;;29.58;;
54121;SDS011;40029;58.708;50.190;2024-03-02T14:14:44;83.63;;;28.52;;
54121;SDS011;40029;58.708;50.190;2024-03-02T14:17:36;84.35;;;28.58;;
54121;SDS011;40029;58.708;50.190;2024-03-02T14:20:26;87.38;;;31.30;;
54121;SDS011;40029;58.708;50.190;2024-03-02T14:22:57;83.50;;;29.60;;
54121;SDS011;40029;58.708;50.190;2024-03-02T14:25:30;105.75;;;33.95;;
54121;SDS011;40029;58.708;50.190;2024-03-02T14:28:03;114.72;;;35.47;;
54121;SDS011;40029;58.708;50.190;2024-03-02T14:30:35;128.77;;;33.78;;
54121;SDS011;40029;58.708;50.190;2024-03-02T14:33:06;110.05;;;32.75;;
54121;SDS011;40029;58.708;50.190;2024-03-02T14:35:37;93.63;;;27.60;;
54121;SDS011;40029;58.708;50.190;2024-03-02T14:38:12;94.03;;;29.50;;
54121;SDS011;40029;58.708;50.190;2024-03-02T14:40:44;83.13;;;26.08;;
54121;SDS011;40029;58.708;50.190;2024-03-02T14:43:15;79.43;;;23.88;;
54121;SDS011;40029;58.708;50.190;2024-03-02T14:45:46;79.60;;;25.20;;
54121;SDS011;40029;58.708;50.190;2024-03-02T14:48:17;83.10;;;28.10;;
54121;SDS011;40029;58.708;50.190;2024-03-02T14:50:49;111.47;;;36.40;;
54121;SDS011;40029;58.708;50.190;2024-03-02T14:53:20;112.68;;;38.40;;
54121;SDS011;40029;58.708;50.190;2024-03-02T14:56:10;119.93;;;40.00;;
54121;SDS011;40029;58.708;50.190;2024-03-02T14:59:01;111.10;;;39.78;;